Wetterdaten: Woche 22.11.10 - 28.11.10 (KW47)
Datum Zeit Temp. A. Feuchte A. Luftdruck Regen Wind Richtung Taupunkt Windchill Windben
22.11.2010 00:00 7,5 C 85 % 1005,1 hPa 0,0 l/m 0,1 km/h S-SO 5,1 C 7,5 C 2,8 km/h
22.11.2010 01:00 7,6 C 85 % 1004,2 hPa 0,0 l/m 0,7 km/h S 5,2 C 7,6 C 4,4 km/h
22.11.2010 02:00 7,9 C 85 % 1003,3 hPa 0,0 l/m 0,0 km/h N 5,5 C 7,9 C 0,4 km/h
22.11.2010 03:00 8,2 C 84 % 1001,8 hPa 0,0 l/m 0,7 km/h O 5,6 C 8,2 C 3,6 km/h
22.11.2010 04:00 8,6 C 84 % 1000,8 hPa 0,0 l/m 2,1 km/h S-SO 6,1 C 8,6 C 7,2 km/h
22.11.2010 05:00 8,7 C 84 % 1000,4 hPa 0,0 l/m 2,0 km/h SO 6,2 C 8,7 C 7,2 km/h
22.11.2010 06:00 8,8 C 84 % 1000,0 hPa 0,0 l/m 0,9 km/h S 6,2 C 8,8 C 6,4 km/h
22.11.2010 07:00 8,7 C 84 % 999,6 hPa 0,0 l/m 0,4 km/h O-SO 6,2 C 8,7 C 5,3 km/h
22.11.2010 08:00 8,6 C 84 % 998,5 hPa 0,0 l/m 4,5 km/h O-SO 6,1 C 8,6 C 12,4 km/h
22.11.2010 09:00 8,8 C 84 % 998,2 hPa 0,0 l/m 3,0 km/h SO 6,2 C 8,8 C 9,7 km/h
22.11.2010 10:00 9,0 C 84 % 997,5 hPa 1,6 l/m 3,0 km/h O-SO 6,4 C 9,0 C 10,2 km/h
22.11.2010 11:00 9,3 C 83 % 996,7 hPa 0,0 l/m 0,7 km/h N 6,6 C 9,3 C 4,8 km/h
22.11.2010 12:00 9,9 C 83 % 996,4 hPa 0,0 l/m 1,0 km/h O-SO 7,1 C 9,9 C 6,8 km/h
22.11.2010 13:00 10,1 C 84 % 995,8 hPa 0,0 l/m 2,0 km/h O-SO 7,5 C 10,1 C 9,7 km/h
22.11.2010 14:00 10,2 C 85 % 995,4 hPa 0,0 l/m 1,4 km/h SO 7,8 C 10,2 C 6,4 km/h
22.11.2010 15:00 10,3 C 85 % 995,0 hPa 0,0 l/m 0,1 km/h N 7,8 C 10,3 C 1,6 km/h
22.11.2010 16:00 9,1 C 85 % 995,1 hPa 0,0 l/m 3,5 km/h NW 6,7 C 9,0 C 11,3 km/h
22.11.2010 17:00 8,2 C 82 % 995,4 hPa 0,0 l/m 3,3 km/h S-SW 5,2 C 8,2 C 14,1 km/h
22.11.2010 18:00 7,9 C 77 % 995,1 hPa 0,0 l/m 8,4 km/h W-NW 4,2 C 6,3 C 22,5 km/h
22.11.2010 19:00 7,8 C 75 % 994,8 hPa 0,0 l/m 9,6 km/h W-SW 3,6 C 5,4 C 25,3 km/h
22.11.2010 20:00 7,7 C 73 % 994,7 hPa 0,0 l/m 10,0 km/h SW 3,1 C 5,0 C 29,0 km/h
22.11.2010 21:00 7,5 C 71 % 995,2 hPa 0,0 l/m 10,6 km/h W-NW 2,7 C 4,5 C 27,0 km/h
22.11.2010 22:00 7,3 C 71 % 995,6 hPa 0,0 l/m 9,4 km/h W-SW 2,4 C 5,1 C 31,0 km/h
22.11.2010 23:00 7,0 C 71 % 995,7 hPa 0,0 l/m 11,0 km/h NW 2,2 C 3,7 C 31,0 km/h
23.11.2010 00:00 6,8 C 71 % 995,9 hPa 0,0 l/m 13,5 km/h W 2,0 C 2,0 C 34,6 km/h
23.11.2010 01:00 6,6 C 73 % 996,5 hPa 0,0 l/m 7,8 km/h W-SW 2,1 C 5,5 C 24,5 km/h
23.11.2010 02:00 6,7 C 71 % 996,7 hPa 0,0 l/m 8,1 km/h NW 1,8 C 5,1 C 24,9 km/h
23.11.2010 03:00 6,8 C 69 % 996,7 hPa 0,0 l/m 9,6 km/h S-SW 1,4 C 4,4 C 26,9 km/h
23.11.2010 04:00 6,8 C 67 % 996,6 hPa 0,0 l/m 9,9 km/h W 1,0 C 4,1 C 27,8 km/h
23.11.2010 05:00 6,5 C 66 % 997,1 hPa 0,0 l/m 6,2 km/h SW 0,6 C 6,2 C 20,5 km/h
23.11.2010 06:00 6,2 C 67 % 997,8 hPa 0,0 l/m 6,6 km/h W 0,5 C 5,7 C 22,5 km/h
23.11.2010 07:00 5,9 C 67 % 998,5 hPa 0,0 l/m 7,7 km/h SW 0,1 C 4,5 C 25,8 km/h
23.11.2010 08:00 5,9 C 69 % 999,1 hPa 0,0 l/m 6,4 km/h W 0,7 C 5,5 C 20,1 km/h
23.11.2010 09:00 6,3 C 68 % 999,5 hPa 0,0 l/m 7,2 km/h S-SW 0,9 C 5,6 C 24,1 km/h
23.11.2010 10:00 7,1 C 66 % 999,6 hPa 0,0 l/m 8,7 km/h W 1,1 C 5,3 C 27,0 km/h
23.11.2010 11:00 7,1 C 65 % 999,6 hPa 0,0 l/m 10,3 km/h W 1,1 C 4,3 C 25,3 km/h
23.11.2010 12:00 7,3 C 64 % 999,7 hPa 0,0 l/m 11,8 km/h W-NW 0,9 C 3,5 C 23,3 km/h
23.11.2010 13:00 6,6 C 65 % 999,8 hPa 0,0 l/m 12,9 km/h S-SW 0,6 C 2,2 C 32,6 km/h
23.11.2010 14:00 6,4 C 67 % 999,8 hPa 0,0 l/m 10,6 km/h NW 0,6 C 3,2 C 26,5 km/h
23.11.2010 15:00 5,7 C 68 % 999,9 hPa 0,0 l/m 10,3 km/h NW 0,2 C 2,8 C 24,9 km/h
23.11.2010 16:00 5,4 C 71 % 1000,1 hPa 0,0 l/m 7,5 km/h W 0,5 C 4,5 C 20,5 km/h
23.11.2010 17:00 5,3 C 72 % 1000,2 hPa 0,0 l/m 6,5 km/h NW 0,7 C 4,9 C 26,1 km/h
23.11.2010 18:00 5,0 C 73 % 1000,5 hPa 0,0 l/m 6,8 km/h W 0,6 C 4,4 C 23,3 km/h
23.11.2010 19:00 4,9 C 72 % 1000,8 hPa 0,0 l/m 8,9 km/h W-NW 0,3 C 2,7 C 24,9 km/h
23.11.2010 20:00 4,5 C 72 % 1001,3 hPa 0,0 l/m 7,5 km/h NW -0,1 C 3,3 C 23,3 km/h
23.11.2010 21:00 4,3 C 71 % 1001,6 hPa 0,0 l/m 7,9 km/h NW -0,4 C 3,1 C 23,3 km/h
23.11.2010 22:00 4,3 C 66 % 1001,9 hPa 0,0 l/m 8,5 km/h NW -1,5 C 2,3 C 22,5 km/h
23.11.2010 23:00 4,2 C 67 % 1002,3 hPa 0,0 l/m 10,2 km/h W-SW -1,4 C 1,1 C 29,8 km/h
24.11.2010 00:00 3,8 C 66 % 1002,1 hPa 0,0 l/m 7,2 km/h W-SW -1,9 C 2,8 C 24,1 km/h
24.11.2010 01:00 3,8 C 66 % 1002,2 hPa 0,0 l/m 9,1 km/h W-SW -2,0 C 1,4 C 24,5 km/h
24.11.2010 02:00 3,7 C 67 % 1002,0 hPa 0,0 l/m 7,3 km/h S-SW -2,0 C 2,7 C 23,7 km/h
24.11.2010 03:00 3,6 C 67 % 1002,0 hPa 0,0 l/m 8,3 km/h W -1,9 C 1,9 C 23,7 km/h
24.11.2010 04:00 3,7 C 67 % 1002,1 hPa 0,0 l/m 9,3 km/h W-NW -1,8 C 1,2 C 26,1 km/h
24.11.2010 05:00 4,1 C 67 % 1002,1 hPa 0,0 l/m 12,2 km/h W-SW -1,5 C -0,4 C 31,0 km/h
24.11.2010 06:00 4,2 C 67 % 1002,4 hPa 0,0 l/m 10,1 km/h W-SW -1,4 C 1,2 C 24,5 km/h
24.11.2010 07:00 4,2 C 67 % 1002,4 hPa 0,0 l/m 9,6 km/h W -1,3 C 1,5 C 29,0 km/h
24.11.2010 08:00 4,5 C 66 % 1002,6 hPa 0,0 l/m 10,8 km/h W -1,3 C 1,0 C 27,8 km/h
24.11.2010 09:00 5,0 C 63 % 1002,9 hPa 0,0 l/m 13,0 km/h W -1,4 C 0,2 C 34,6 km/h
24.11.2010 10:00 5,8 C 62 % 1003,1 hPa 0,0 l/m 14,1 km/h W-SW -1,0 C 0,5 C 37,4 km/h
24.11.2010 11:00 5,8 C 62 % 1002,9 hPa 0,0 l/m 14,4 km/h W-SW -0,9 C 0,4 C 39,8 km/h
24.11.2010 12:00 6,3 C 61 % 1003,0 hPa 0,0 l/m 13,5 km/h W -0,7 C 1,4 C 32,2 km/h
24.11.2010 13:00 6,1 C 62 % 1003,6 hPa 0,0 l/m 11,3 km/h W -0,6 C 2,5 C 28,6 km/h
24.11.2010 14:00 6,2 C 64 % 1004,0 hPa 0,0 l/m 10,8 km/h W-SW -0,1 C 2,9 C 27,4 km/h
24.11.2010 15:00 5,6 C 66 % 1004,5 hPa 0,0 l/m 11,1 km/h W-SW -0,3 C 2,1 C 31,0 km/h
24.11.2010 16:00 4,9 C 67 % 1005,0 hPa 0,0 l/m 8,3 km/h W -0,6 C 3,3 C 23,7 km/h
24.11.2010 17:00 4,5 C 72 % 1005,5 hPa 0,0 l/m 6,7 km/h W-SW -0,2 C 3,9 C 21,7 km/h
24.11.2010 18:00 4,4 C 71 % 1005,6 hPa 0,0 l/m 6,8 km/h W-SW -0,3 C 4,1 C 22,9 km/h
24.11.2010 19:00 4,6 C 71 % 1005,7 hPa 0,0 l/m 7,6 km/h SW -0,3 C 3,6 C 24,5 km/h
24.11.2010 20:00 4,7 C 70 % 1006,0 hPa 0,0 l/m 6,3 km/h W-SW -0,3 C 4,3 C 20,9 km/h
24.11.2010 21:00 4,8 C 70 % 1006,3 hPa 0,0 l/m 7,8 km/h W -0,2 C 3,6 C 20,9 km/h
24.11.2010 22:00 4,6 C 71 % 1006,3 hPa 0,0 l/m 6,3 km/h W-SW -0,3 C 4,4 C 21,3 km/h
24.11.2010 23:00 4,4 C 72 % 1006,9 hPa 0,0 l/m 7,5 km/h S -0,2 C 3,5 C 20,9 km/h
25.11.2010 00:00 4,7 C 71 % 1007,0 hPa 0,0 l/m 7,7 km/h W-SW -0,2 C 3,4 C 22,9 km/h
25.11.2010 01:00 4,4 C 71 % 1006,8 hPa 0,0 l/m 4,4 km/h W-SW -0,4 C 4,4 C 15,7 km/h
25.11.2010 02:00 4,3 C 71 % 1006,9 hPa 0,0 l/m 3,3 km/h W-SW -0,6 C 4,2 C 12,5 km/h
25.11.2010 03:00 3,1 C 72 % 1006,9 hPa 0,0 l/m 0,3 km/h N -1,4 C 3,1 C 2,4 km/h
25.11.2010 04:00 2,1 C 77 % 1007,1 hPa 0,0 l/m 1,2 km/h W-SW -1,6 C 2,1 C 4,4 km/h
25.11.2010 05:00 3,8 C 75 % 1006,8 hPa 0,0 l/m 5,7 km/h W-SW -0,2 C 3,5 C 16,5 km/h
25.11.2010 06:00 3,9 C 74 % 1006,9 hPa 0,0 l/m 5,2 km/h W-SW -0,4 C 3,8 C 18,1 km/h
25.11.2010 07:00 3,9 C 73 % 1007,0 hPa 0,0 l/m 3,8 km/h S-SW -0,5 C 3,9 C 16,1 km/h
25.11.2010 08:00 3,3 C 75 % 1007,4 hPa 0,0 l/m 0,2 km/h N -0,7 C 3,3 C 2,0 km/h
25.11.2010 09:00 2,8 C 79 % 1007,8 hPa 0,0 l/m 0,2 km/h N -0,5 C 2,8 C 2,8 km/h
25.11.2010 10:00 4,0 C 77 % 1008,1 hPa 0,0 l/m 2,7 km/h W-SW 0,2 C 3,8 C 12,9 km/h
25.11.2010 11:00 5,2 C 68 % 1007,9 hPa 0,0 l/m 5,2 km/h W -0,2 C 5,2 C 17,7 km/h
25.11.2010 12:00 5,5 C 65 % 1007,5 hPa 0,0 l/m 2,9 km/h W-NW -0,6 C 5,5 C 9,3 km/h
25.11.2010 13:00 6,3 C 60 % 1007,0 hPa 0,0 l/m 4,3 km/h N-NW -0,9 C 6,3 C 14,1 km/h
25.11.2010 14:00 5,9 C 64 % 1006,4 hPa 0,0 l/m 3,0 km/h NW -0,4 C 5,9 C 8,1 km/h
25.11.2010 15:00 5,4 C 66 % 1006,3 hPa 0,0 l/m 0,0 km/h N -0,5 C 5,4 C 0,8 km/h
25.11.2010 16:00 4,1 C 69 % 1006,3 hPa 0,0 l/m 0,0 km/h N -1,1 C 4,1 C 0,0 km/h
25.11.2010 17:00 2,4 C 74 % 1006,2 hPa 0,0 l/m 0,0 km/h N -1,7 C 2,4 C 0,0 km/h
25.11.2010 18:00 1,1 C 78 % 1006,0 hPa 0,0 l/m 0,0 km/h N -2,3 C 1,1 C 0,4 km/h
25.11.2010 19:00 -0,1 C 80 % 1005,9 hPa 0,0 l/m 0,0 km/h N -3,1 C -0,1 C 0,0 km/h
25.11.2010 20:00 -0,8 C 82 % 1005,5 hPa 0,0 l/m 0,0 km/h N -3,5 C -0,8 C 0,4 km/h
25.11.2010 21:00 -0,1 C 85 % 1004,9 hPa 0,0 l/m 0,0 km/h N -2,4 C -0,1 C 1,2 km/h
25.11.2010 22:00 0,2 C 85 % 1004,4 hPa 0,0 l/m 0,0 km/h N -2,0 C 0,2 C 0,8 km/h
25.11.2010 23:00 -0,9 C 85 % 1004,0 hPa 0,0 l/m 0,0 km/h N -3,1 C -0,9 C 0,8 km/h
26.11.2010 00:00 -0,6 C 85 % 1003,4 hPa 0,0 l/m 0,2 km/h N -2,8 C -0,6 C 2,0 km/h
26.11.2010 01:00 -0,2 C 85 % 1002,8 hPa 0,0 l/m 0,1 km/h N -2,4 C -0,2 C 1,6 km/h
26.11.2010 02:00 -0,4 C 85 % 1002,4 hPa 0,0 l/m 0,2 km/h N -2,7 C -0,4 C 1,6 km/h
26.11.2010 03:00 -1,9 C 84 % 1001,8 hPa 0,0 l/m 0,0 km/h N -4,2 C -1,9 C 1,2 km/h
26.11.2010 04:00 -2,2 C 85 % 1001,6 hPa 0,0 l/m 0,0 km/h N -4,4 C -2,2 C 0,8 km/h
26.11.2010 05:00 -1,8 C 85 % 1001,2 hPa 0,0 l/m 0,1 km/h N -4,0 C -1,8 C 2,0 km/h
26.11.2010 06:00 -2,7 C 85 % 1001,1 hPa 0,0 l/m 0,0 km/h N -4,8 C -2,7 C 0,0 km/h
26.11.2010 07:00 -3,1 C 86 % 1001,5 hPa 0,0 l/m 0,0 km/h N -5,1 C -3,1 C 0,4 km/h
26.11.2010 08:00 -1,6 C 85 % 1001,9 hPa 0,0 l/m 0,1 km/h N -3,8 C -1,6 C 1,2 km/h
26.11.2010 09:00 0,4 C 85 % 1002,2 hPa 0,0 l/m 0,4 km/h N -1,8 C 0,4 C 2,0 km/h
26.11.2010 10:00 1,8 C 85 % 1002,3 hPa 0,0 l/m 0,5 km/h N -0,5 C 1,8 C 4,0 km/h
26.11.2010 11:00 3,0 C 83 % 1002,0 hPa 0,0 l/m 0,7 km/h O 0,3 C 3,0 C 4,8 km/h
26.11.2010 12:00 4,0 C 79 % 1001,6 hPa 0,0 l/m 1,2 km/h O 0,6 C 4,0 C 4,4 km/h
26.11.2010 13:00 4,7 C 74 % 1001,0 hPa 0,0 l/m 1,8 km/h NO 0,4 C 4,7 C 6,4 km/h
26.11.2010 14:00 3,9 C 78 % 1001,0 hPa 0,0 l/m 2,0 km/h SO 0,3 C 3,9 C 7,6 km/h
26.11.2010 15:00 3,3 C 80 % 1001,0 hPa 0,0 l/m 0,3 km/h N 0,3 C 3,3 C 2,8 km/h
26.11.2010 16:00 3,0 C 82 % 1001,4 hPa 0,0 l/m 0,0 km/h N 0,2 C 3,0 C 0,0 km/h
26.11.2010 17:00 2,7 C 83 % 1001,5 hPa 0,0 l/m 0,1 km/h N 0,1 C 2,7 C 1,2 km/h
26.11.2010 18:00 2,5 C 83 % 1001,5 hPa 0,0 l/m 1,6 km/h N-NW -0,1 C 2,5 C 6,0 km/h
26.11.2010 19:00 2,3 C 82 % 1001,5 hPa 0,0 l/m 1,8 km/h W-NW -0,4 C 2,3 C 7,6 km/h
26.11.2010 20:00 2,0 C 82 % 1001,6 hPa 0,3 l/m 0,7 km/h NW -0,7 C 2,0 C 4,4 km/h
26.11.2010 21:00 1,1 C 85 % 1001,7 hPa 0,3 l/m 1,5 km/h NW -1,2 C 1,1 C 6,0 km/h
26.11.2010 22:00 0,9 C 85 % 1001,7 hPa 0,3 l/m 2,2 km/h NW -1,4 C 0,9 C 10,5 km/h
26.11.2010 23:00 0,7 C 85 % 1001,6 hPa 0,0 l/m 3,5 km/h W -1,5 C 0,7 C 11,7 km/h
27.11.2010 00:00 0,7 C 85 % 1001,5 hPa 0,0 l/m 6,2 km/h W -1,5 C 0,3 C 19,3 km/h
27.11.2010 01:00 0,6 C 85 % 1001,6 hPa 0,3 l/m 7,8 km/h NW -1,6 C -0,7 C 21,3 km/h
27.11.2010 02:00 0,5 C 85 % 1002,2 hPa 0,0 l/m 9,2 km/h NW -1,7 C -2,2 C 25,0 km/h
27.11.2010 03:00 0,4 C 85 % 1002,4 hPa 0,0 l/m 7,3 km/h NW -1,8 C -0,7 C 19,3 km/h
27.11.2010 04:00 0,4 C 85 % 1003,0 hPa 0,0 l/m 7,6 km/h NW -1,8 C -0,8 C 21,3 km/h
27.11.2010 05:00 0,4 C 85 % 1003,6 hPa 0,0 l/m 9,4 km/h W-NW -1,8 C -2,5 C 23,3 km/h
27.11.2010 06:00 0,3 C 85 % 1004,4 hPa 0,0 l/m 10,3 km/h W-NW -2,0 C -3,4 C 26,9 km/h
27.11.2010 07:00 0,3 C 82 % 1005,3 hPa 0,0 l/m 9,2 km/h W -2,4 C -2,4 C 22,5 km/h
27.11.2010 08:00 0,4 C 81 % 1006,0 hPa 0,0 l/m 6,3 km/h W-NW -2,6 C 0,0 C 22,9 km/h
27.11.2010 09:00 0,8 C 78 % 1006,6 hPa 0,0 l/m 8,6 km/h W -2,7 C -1,4 C 24,9 km/h
27.11.2010 10:00 1,3 C 75 % 1007,3 hPa 0,0 l/m 7,9 km/h W -2,7 C -0,2 C 25,3 km/h
27.11.2010 11:00 1,6 C 72 % 1007,3 hPa 0,5 l/m 7,7 km/h W -3,0 C 0,2 C 20,5 km/h
27.11.2010 12:00 1,9 C 70 % 1007,4 hPa 0,0 l/m 6,5 km/h W-SW -3,1 C 1,0 C 18,1 km/h
27.11.2010 13:00 2,3 C 66 % 1007,3 hPa 0,0 l/m 4,4 km/h NW -3,5 C 2,3 C 13,7 km/h
27.11.2010 14:00 2,6 C 61 % 1007,6 hPa 0,0 l/m 2,8 km/h W -4,2 C 2,6 C 9,3 km/h
27.11.2010 15:00 2,3 C 61 % 1007,9 hPa 0,0 l/m 1,5 km/h N -4,4 C 2,3 C 5,2 km/h
27.11.2010 16:00 0,9 C 65 % 1008,3 hPa 0,0 l/m 0,0 km/h N -4,8 C 0,9 C 0,0 km/h
27.11.2010 17:00 -0,9 C 74 % 1008,7 hPa 0,0 l/m 0,0 km/h N -5,0 C -0,9 C 0,4 km/h
27.11.2010 18:00 -1,7 C 78 % 1008,9 hPa 0,0 l/m 0,1 km/h N -5,0 C -1,7 C 0,8 km/h
27.11.2010 19:00 -1,8 C 80 % 1009,0 hPa 0,0 l/m 0,0 km/h N -4,8 C -1,8 C 0,0 km/h
27.11.2010 20:00 -1,5 C 82 % 1009,0 hPa 0,0 l/m 0,0 km/h N -4,3 C -1,5 C 0,0 km/h
27.11.2010 21:00 -0,9 C 83 % 1009,0 hPa 0,0 l/m 0,0 km/h N -3,5 C -0,9 C 0,4 km/h
27.11.2010 22:00 -1,1 C 81 % 1008,9 hPa 0,0 l/m 0,0 km/h N -3,8 C -1,1 C 0,0 km/h
27.11.2010 23:00 -2,3 C 82 % 1009,2 hPa 0,0 l/m 0,0 km/h N -4,9 C -2,3 C 0,0 km/h
28.11.2010 00:00 -2,4 C 84 % 1009,1 hPa 0,0 l/m 0,0 km/h N -4,8 C -2,4 C 0,8 km/h
28.11.2010 01:00 -1,3 C 85 % 1009,2 hPa 0,0 l/m 0,0 km/h N -3,5 C -1,3 C 1,2 km/h
28.11.2010 02:00 -0,9 C 85 % 1009,6 hPa 0,0 l/m 0,0 km/h N -3,0 C -0,9 C 1,6 km/h
28.11.2010 03:00 -1,1 C 85 % 1009,5 hPa 0,0 l/m 0,3 km/h N -3,2 C -1,1 C 3,2 km/h
28.11.2010 04:00 -1,3 C 85 % 1009,9 hPa 0,0 l/m 0,6 km/h S -3,5 C -1,3 C 5,2 km/h
28.11.2010 05:00 -1,6 C 85 % 1010,0 hPa 0,0 l/m 0,2 km/h N -3,8 C -1,6 C 2,8 km/h
28.11.2010 06:00 -1,5 C 87 % 1010,3 hPa 0,0 l/m 0,2 km/h N -3,4 C -1,5 C 2,4 km/h
28.11.2010 07:00 -1,4 C 89 % 1010,3 hPa 0,0 l/m 0,3 km/h N -3,1 C -1,4 C 2,8 km/h
28.11.2010 08:00 -1,3 C 88 % 1010,4 hPa 0,0 l/m 0,0 km/h N -3,1 C -1,3 C 1,2 km/h
28.11.2010 09:00 -1,0 C 86 % 1010,4 hPa 0,0 l/m 0,1 km/h N -3,0 C -1,0 C 2,0 km/h
28.11.2010 10:00 -0,7 C 86 % 1010,5 hPa 0,0 l/m 0,3 km/h N -2,8 C -0,7 C 2,8 km/h
28.11.2010 11:00 -0,4 C 86 % 1010,0 hPa 0,0 l/m 0,4 km/h S -2,5 C -0,4 C 4,4 km/h
28.11.2010 12:00 -0,2 C 86 % 1009,3 hPa 0,0 l/m 0,7 km/h N -2,3 C -0,2 C 5,2 km/h
28.11.2010 13:00 0,1 C 86 % 1008,5 hPa 0,0 l/m 1,3 km/h S -1,9 C 0,1 C 7,6 km/h
28.11.2010 14:00 0,6 C 86 % 1008,3 hPa 0,0 l/m 0,3 km/h N -1,5 C 0,6 C 4,8 km/h
28.11.2010 15:00 0,9 C 86 % 1008,0 hPa 0,0 l/m 0,0 km/h N -1,2 C 0,9 C 1,2 km/h
28.11.2010 16:00 1,2 C 86 % 1007,5 hPa 0,0 l/m 0,9 km/h O-SO -0,9 C 1,2 C 6,8 km/h
28.11.2010 17:00 0,7 C 86 % 1006,8 hPa 0,0 l/m 0,6 km/h N -1,4 C 0,7 C 3,6 km/h
28.11.2010 18:00 0,4 C 86 % 1006,1 hPa 0,0 l/m 0,1 km/h N -1,6 C 0,4 C 1,2 km/h
28.11.2010 19:00 0,4 C 86 % 1005,3 hPa 0,0 l/m 0,0 km/h N -1,7 C 0,4 C 0,0 km/h
28.11.2010 20:00 0,3 C 85 % 1004,1 hPa 0,0 l/m 0,0 km/h N -1,9 C 0,3 C 0,0 km/h
28.11.2010 21:00 0,3 C 85 % 1002,8 hPa 0,0 l/m 0,0 km/h N -1,9 C 0,3 C 0,0 km/h
28.11.2010 22:00 0,3 C 85 % 1001,3 hPa 0,0 l/m 0,0 km/h N -1,9 C 0,3 C 0,0 km/h
28.11.2010 23:00 0,3 C 86 % 999,8 hPa 0,0 l/m 0,0 km/h N -1,7 C 0,3 C 0,0 km/h
Min-Datum _ 26.11.10 25.11.10 22.11.10 - 22.11.10 - 26.11.10 27.11.10 22.11.10
_ Min-Zeit 07:15 13:30 20:00 - 00:15 - 07:15 06:15 02:15
Minimum _ -3,4 C 58 % 994,6 hPa - 0,0 km/h - -5,5 C -4,2 C 0,0 km/h
Max-Datum _ 22.11.10 28.11.10 28.11.10 22.11.10 24.11.10 - 22.11.10 22.11.10 24.11.10
_ Max-Zeit 14:45 06:45 07:30 10:30 10:00 - 15:00 15:00 10:00
Maximum _ 10,3 C 92 % 1010,6 hPa 1,6 l/m 16,2 km/h
W-SW
- 7,9 C 10,3 C 45,1 km/h
SW
Durchschnitt _ 3,3 C 77 % 1003,3 hPa #3,1 l/m 4,3 km/h W -0,5 C 2,4 C 13,0 km/h